sensor_id;sensor_type;location;lat;lon;timestamp;temperature;humidity
72202;SHT30;60105;54.956;73.412;2023-04-06T00:00:50;4.79;58.10
72202;SHT30;60105;54.956;73.412;2023-04-06T00:03:52;4.78;57.92
72202;SHT30;60105;54.956;73.412;2023-04-06T00:07:03;4.75;58.00
72202;SHT30;60105;54.956;73.412;2023-04-06T00:10:16;4.73;58.30
72202;SHT30;60105;54.956;73.412;2023-04-06T00:13:17;4.69;58.15
72202;SHT30;60105;54.956;73.412;2023-04-06T00:16:40;4.64;58.41
72202;SHT30;60105;54.956;73.412;2023-04-06T00:19:41;4.61;58.96
72202;SHT30;60105;54.956;73.412;2023-04-06T00:22:43;4.57;58.59
72202;SHT30;60105;54.956;73.412;2023-04-06T00:25:45;4.55;58.75
72202;SHT30;60105;54.956;73.412;2023-04-06T00:28:47;4.54;59.04
72202;SHT30;60105;54.956;73.412;2023-04-06T00:31:48;4.51;59.32
72202;SHT30;60105;54.956;73.412;2023-04-06T00:34:49;4.47;59.16
72202;SHT30;60105;54.956;73.412;2023-04-06T00:37:51;4.48;58.97
72202;SHT30;60105;54.956;73.412;2023-04-06T00:40:52;4.48;59.25
72202;SHT30;60105;54.956;73.412;2023-04-06T00:43:54;4.48;59.37
72202;SHT30;60105;54.956;73.412;2023-04-06T00:46:56;4.50;59.22
72202;SHT30;60105;54.956;73.412;2023-04-06T00:49:57;4.51;59.15
72202;SHT30;60105;54.956;73.412;2023-04-06T00:52:59;4.52;59.24
72202;SHT30;60105;54.956;73.412;2023-04-06T00:56:41;4.48;59.45
72202;SHT30;60105;54.956;73.412;2023-04-06T00:59:44;4.51;59.49
72202;SHT30;60105;54.956;73.412;2023-04-06T01:02:53;4.48;59.42
72202;SHT30;60105;54.956;73.412;2023-04-06T01:06:40;4.51;59.58
72202;SHT30;60105;54.956;73.412;2023-04-06T01:09:53;4.55;59.51
72202;SHT30;60105;54.956;73.412;2023-04-06T01:12:58;4.52;59.44
72202;SHT30;60105;54.956;73.412;2023-04-06T01:16:40;4.52;59.59
72202;SHT30;60105;54.956;73.412;2023-04-06T01:19:45;4.57;59.82
72202;SHT30;60105;54.956;73.412;2023-04-06T01:22:55;4.55;60.01
72202;SHT30;60105;54.956;73.412;2023-04-06T01:26:40;4.54;59.94
72202;SHT30;60105;54.956;73.412;2023-04-06T01:29:44;4.52;60.08
72202;SHT30;60105;54.956;73.412;2023-04-06T01:32:49;4.55;60.21
72202;SHT30;60105;54.956;73.412;2023-04-06T01:36:40;4.61;59.91
72202;SHT30;60105;54.956;73.412;2023-04-06T01:39:56;4.67;60.00
72202;SHT30;60105;54.956;73.412;2023-04-06T01:43:22;4.67;59.68
72202;SHT30;60105;54.956;73.412;2023-04-06T01:46:40;4.72;59.84
72202;SHT30;60105;54.956;73.412;2023-04-06T01:49:43;4.71;59.66
72202;SHT30;60105;54.956;73.412;2023-04-06T01:52:52;4.78;59.69
72202;SHT30;60105;54.956;73.412;2023-04-06T01:55:54;4.82;59.67
72202;SHT30;60105;54.956;73.412;2023-04-06T01:59:03;4.85;59.79
72202;SHT30;60105;54.956;73.412;2023-04-06T02:02:11;4.88;59.79
72202;SHT30;60105;54.956;73.412;2023-04-06T02:05:16;4.96;59.73
72202;SHT30;60105;54.956;73.412;2023-04-06T02:08:18;4.99;59.58
72202;SHT30;60105;54.956;73.412;2023-04-06T02:11:20;5.06;59.42
72202;SHT30;60105;54.956;73.412;2023-04-06T02:14:25;5.08;59.61
72202;SHT30;60105;54.956;73.412;2023-04-06T02:17:29;5.08;59.59
72202;SHT30;60105;54.956;73.412;2023-04-06T02:20:41;5.12;59.38
72202;SHT30;60105;54.956;73.412;2023-04-06T02:23:47;5.22;59.40
72202;SHT30;60105;54.956;73.412;2023-04-06T02:26:50;5.30;59.08
72202;SHT30;60105;54.956;73.412;2023-04-06T02:29:57;5.37;58.81
72202;SHT30;60105;54.956;73.412;2023-04-06T02:33:00;5.43;58.97
72202;SHT30;60105;54.956;73.412;2023-04-06T02:36:40;5.48;58.68
72202;SHT30;60105;54.956;73.412;2023-04-06T02:39:42;5.58;58.60
72202;SHT30;60105;54.956;73.412;2023-04-06T02:42:44;5.69;58.63
72202;SHT30;60105;54.956;73.412;2023-04-06T02:45:46;5.77;58.12
72202;SHT30;60105;54.956;73.412;2023-04-06T02:48:48;5.79;57.94
72202;SHT30;60105;54.956;73.412;2023-04-06T02:51:50;5.87;57.81
72202;SHT30;60105;54.956;73.412;2023-04-06T02:54:59;5.88;58.18
72202;SHT30;60105;54.956;73.412;2023-04-06T02:58:04;5.97;58.03
72202;SHT30;60105;54.956;73.412;2023-04-06T03:01:40;6.03;57.83
72202;SHT30;60105;54.956;73.412;2023-04-06T03:04:42;6.13;57.74
72202;SHT30;60105;54.956;73.412;2023-04-06T03:07:53;6.28;57.77
72202;SHT30;60105;54.956;73.412;2023-04-06T03:11:08;6.44;57.17
72202;SHT30;60105;54.956;73.412;2023-04-06T03:14:14;6.54;56.44
72202;SHT30;60105;54.956;73.412;2023-04-06T03:17:18;6.66;57.09
72202;SHT30;60105;54.956;73.412;2023-04-06T03:20:29;6.83;55.99
72202;SHT30;60105;54.956;73.412;2023-04-06T03:23:31;6.97;55.96
72202;SHT30;60105;54.956;73.412;2023-04-06T03:26:40;7.11;55.36
72202;SHT30;60105;54.956;73.412;2023-04-06T03:29:42;7.26;54.54
72202;SHT30;60105;54.956;73.412;2023-04-06T03:32:48;7.46;54.61
72202;SHT30;60105;54.956;73.412;2023-04-06T03:36:40;7.56;53.90
72202;SHT30;60105;54.956;73.412;2023-04-06T03:39:41;7.71;53.81
72202;SHT30;60105;54.956;73.412;2023-04-06T03:42:43;7.87;53.09
72202;SHT30;60105;54.956;73.412;2023-04-06T03:45:48;8.01;52.64
72202;SHT30;60105;54.956;73.412;2023-04-06T03:48:50;8.11;52.37
72202;SHT30;60105;54.956;73.412;2023-04-06T03:51:55;8.22;51.32
72202;SHT30;60105;54.956;73.412;2023-04-06T03:54:57;8.38;50.86
72202;SHT30;60105;54.956;73.412;2023-04-06T03:57:58;8.48;51.35
72202;SHT30;60105;54.956;73.412;2023-04-06T04:01:40;8.60;51.09
72202;SHT30;60105;54.956;73.412;2023-04-06T04:04:41;8.70;50.13
72202;SHT30;60105;54.956;73.412;2023-04-06T04:07:43;8.80;49.88
72202;SHT30;60105;54.956;73.412;2023-04-06T04:10:46;9.01;49.46
72202;SHT30;60105;54.956;73.412;2023-04-06T04:13:47;9.11;49.47
72202;SHT30;60105;54.956;73.412;2023-04-06T04:16:49;9.21;49.03
72202;SHT30;60105;54.956;73.412;2023-04-06T04:19:50;9.34;48.95
72202;SHT30;60105;54.956;73.412;2023-04-06T04:22:57;9.44;48.78
72202;SHT30;60105;54.956;73.412;2023-04-06T04:26:40;9.61;48.33
72202;SHT30;60105;54.956;73.412;2023-04-06T04:29:47;9.75;48.65
72202;SHT30;60105;54.956;73.412;2023-04-06T04:32:48;9.90;47.24
72202;SHT30;60105;54.956;73.412;2023-04-06T04:35:53;10.00;46.93
72202;SHT30;60105;54.956;73.412;2023-04-06T04:38:58;10.07;46.43
72202;SHT30;60105;54.956;73.412;2023-04-06T04:42:08;10.14;47.39
72202;SHT30;60105;54.956;73.412;2023-04-06T04:45:14;10.21;46.99
72202;SHT30;60105;54.956;73.412;2023-04-06T04:48:16;10.29;47.83
72202;SHT30;60105;54.956;73.412;2023-04-06T04:51:40;10.38;48.31
72202;SHT30;60105;54.956;73.412;2023-04-06T04:54:53;10.44;47.88
72202;SHT30;60105;54.956;73.412;2023-04-06T04:58:01;10.48;47.57
72202;SHT30;60105;54.956;73.412;2023-04-06T05:01:39;10.61;46.46
72202;SHT30;60105;54.956;73.412;2023-04-06T05:04:41;10.71;46.83
72202;SHT30;60105;54.956;73.412;2023-04-06T05:07:46;10.81;46.68
72202;SHT30;60105;54.956;73.412;2023-04-06T05:11:09;10.91;48.00
72202;SHT30;60105;54.956;73.412;2023-04-06T05:14:16;10.93;46.55
72202;SHT30;60105;54.956;73.412;2023-04-06T05:17:18;11.02;46.86
72202;SHT30;60105;54.956;73.412;2023-04-06T05:20:19;11.13;46.05
72202;SHT30;60105;54.956;73.412;2023-04-06T05:23:24;11.16;45.62
72202;SHT30;60105;54.956;73.412;2023-04-06T05:26:40;11.26;45.83
72202;SHT30;60105;54.956;73.412;2023-04-06T05:29:49;11.37;46.84
72202;SHT30;60105;54.956;73.412;2023-04-06T05:32:51;11.47;46.69
72202;SHT30;60105;54.956;73.412;2023-04-06T05:35:53;11.53;46.21
72202;SHT30;60105;54.956;73.412;2023-04-06T05:38:54;11.60;43.80
72202;SHT30;60105;54.956;73.412;2023-04-06T05:42:23;11.74;46.03
72202;SHT30;60105;54.956;73.412;2023-04-06T05:45:33;11.80;44.93
72202;SHT30;60105;54.956;73.412;2023-04-06T05:48:34;11.90;44.62
72202;SHT30;60105;54.956;73.412;2023-04-06T05:51:39;11.99;45.05
72202;SHT30;60105;54.956;73.412;2023-04-06T05:54:52;12.08;44.61
72202;SHT30;60105;54.956;73.412;2023-04-06T05:57:53;12.18;43.92
72202;SHT30;60105;54.956;73.412;2023-04-06T06:01:40;12.33;44.72
72202;SHT30;60105;54.956;73.412;2023-04-06T06:04:41;12.39;44.21
72202;SHT30;60105;54.956;73.412;2023-04-06T06:07:43;12.46;44.04
72202;SHT30;60105;54.956;73.412;2023-04-06T06:10:50;12.57;43.60
72202;SHT30;60105;54.956;73.412;2023-04-06T06:14:05;12.67;43.70
72202;SHT30;60105;54.956;73.412;2023-04-06T06:17:13;12.81;44.71
72202;SHT30;60105;54.956;73.412;2023-04-06T06:20:19;12.91;44.36
72202;SHT30;60105;54.956;73.412;2023-04-06T06:23:22;13.00;43.15
72202;SHT30;60105;54.956;73.412;2023-04-06T06:26:39;13.08;43.81
72202;SHT30;60105;54.956;73.412;2023-04-06T06:29:52;13.15;44.48
72202;SHT30;60105;54.956;73.412;2023-04-06T06:32:54;13.25;45.03
72202;SHT30;60105;54.956;73.412;2023-04-06T06:36:40;13.34;45.06
72202;SHT30;60105;54.956;73.412;2023-04-06T06:39:43;13.42;44.37
72202;SHT30;60105;54.956;73.412;2023-04-06T06:42:45;13.51;44.73
72202;SHT30;60105;54.956;73.412;2023-04-06T06:46:40;13.58;44.66
72202;SHT30;60105;54.956;73.412;2023-04-06T06:49:51;13.59;45.14
72202;SHT30;60105;54.956;73.412;2023-04-06T06:52:52;13.70;45.64
72202;SHT30;60105;54.956;73.412;2023-04-06T06:55:54;13.72;45.35
72202;SHT30;60105;54.956;73.412;2023-04-06T06:59:06;13.72;45.32
72202;SHT30;60105;54.956;73.412;2023-04-06T07:02:07;13.82;45.77
72202;SHT30;60105;54.956;73.412;2023-04-06T07:05:15;13.95;44.83
72202;SHT30;60105;54.956;73.412;2023-04-06T07:08:16;13.97;44.16
72202;SHT30;60105;54.956;73.412;2023-04-06T07:11:18;14.02;44.70
72202;SHT30;60105;54.956;73.412;2023-04-06T07:14:19;14.17;42.68
72202;SHT30;60105;54.956;73.412;2023-04-06T07:17:26;14.27;44.13
72202;SHT30;60105;54.956;73.412;2023-04-06T07:20:27;14.30;44.89
72202;SHT30;60105;54.956;73.412;2023-04-06T07:23:29;14.38;46.47
72202;SHT30;60105;54.956;73.412;2023-04-06T07:26:39;14.44;44.96
72202;SHT30;60105;54.956;73.412;2023-04-06T07:29:46;14.49;42.31
72202;SHT30;60105;54.956;73.412;2023-04-06T07:32:52;14.52;42.92
72202;SHT30;60105;54.956;73.412;2023-04-06T07:35:55;14.61;44.46
72202;SHT30;60105;54.956;73.412;2023-04-06T07:38:57;14.67;42.38
72202;SHT30;60105;54.956;73.412;2023-04-06T07:41:59;14.62;41.40
72202;SHT30;60105;54.956;73.412;2023-04-06T07:45:01;14.68;44.26
72202;SHT30;60105;54.956;73.412;2023-04-06T07:48:02;14.83;44.08
72202;SHT30;60105;54.956;73.412;2023-04-06T07:51:40;14.89;42.79
72202;SHT30;60105;54.956;73.412;2023-04-06T07:54:46;14.92;41.99
72202;SHT30;60105;54.956;73.412;2023-04-06T07:57:50;15.03;42.97
72202;SHT30;60105;54.956;73.412;2023-04-06T08:00:51;15.09;42.93
72202;SHT30;60105;54.956;73.412;2023-04-06T08:03:53;15.13;42.21
72202;SHT30;60105;54.956;73.412;2023-04-06T08:06:56;15.18;42.77
72202;SHT30;60105;54.956;73.412;2023-04-06T08:09:57;15.19;42.28
72202;SHT30;60105;54.956;73.412;2023-04-06T08:12:59;15.22;42.43
72202;SHT30;60105;54.956;73.412;2023-04-06T08:16:40;15.33;39.19
72202;SHT30;60105;54.956;73.412;2023-04-06T08:19:43;15.39;40.84
72202;SHT30;60105;54.956;73.412;2023-04-06T08:22:48;15.46;40.15
72202;SHT30;60105;54.956;73.412;2023-04-06T08:25:49;15.55;40.67
72202;SHT30;60105;54.956;73.412;2023-04-06T08:28:50;15.67;39.86
72202;SHT30;60105;54.956;73.412;2023-04-06T08:31:52;15.70;39.32
72202;SHT30;60105;54.956;73.412;2023-04-06T08:34:54;15.74;39.46
72202;SHT30;60105;54.956;73.412;2023-04-06T08:37:57;15.81;38.26
72202;SHT30;60105;54.956;73.412;2023-04-06T08:41:10;15.85;39.84
72202;SHT30;60105;54.956;73.412;2023-04-06T08:44:21;15.91;39.40
72202;SHT30;60105;54.956;73.412;2023-04-06T08:47:22;15.98;39.33
72202;SHT30;60105;54.956;73.412;2023-04-06T08:50:24;16.04;39.65
72202;SHT30;60105;54.956;73.412;2023-04-06T08:53:26;16.04;39.53
72202;SHT30;60105;54.956;73.412;2023-04-06T08:56:39;16.12;37.97
72202;SHT30;60105;54.956;73.412;2023-04-06T08:59:41;16.08;38.70
72202;SHT30;60105;54.956;73.412;2023-04-06T09:02:45;16.15;40.17
72202;SHT30;60105;54.956;73.412;2023-04-06T09:06:40;16.19;38.20
72202;SHT30;60105;54.956;73.412;2023-04-06T09:09:46;16.21;39.47
72202;SHT30;60105;54.956;73.412;2023-04-06T09:13:02;16.23;39.03
72202;SHT30;60105;54.956;73.412;2023-04-06T09:16:41;16.29;36.65
72202;SHT30;60105;54.956;73.412;2023-04-06T09:19:46;16.32;37.56
72202;SHT30;60105;54.956;73.412;2023-04-06T09:22:48;16.34;37.86
72202;SHT30;60105;54.956;73.412;2023-04-06T09:25:50;16.45;38.45
72202;SHT30;60105;54.956;73.412;2023-04-06T09:28:54;16.53;36.86
72202;SHT30;60105;54.956;73.412;2023-04-06T09:32:08;16.56;37.44
72202;SHT30;60105;54.956;73.412;2023-04-06T09:35:11;16.63;37.51
72202;SHT30;60105;54.956;73.412;2023-04-06T09:38:12;16.56;34.65
72202;SHT30;60105;54.956;73.412;2023-04-06T09:41:21;16.64;36.86
72202;SHT30;60105;54.956;73.412;2023-04-06T09:44:22;16.71;36.85
72202;SHT30;60105;54.956;73.412;2023-04-06T09:47:25;16.70;35.38
72202;SHT30;60105;54.956;73.412;2023-04-06T09:50:27;16.61;36.62
72202;SHT30;60105;54.956;73.412;2023-04-06T09:53:31;16.69;35.90
72202;SHT30;60105;54.956;73.412;2023-04-06T09:56:45;16.66;36.10
72202;SHT30;60105;54.956;73.412;2023-04-06T10:06:39;16.63;36.99
72202;SHT30;60105;54.956;73.412;2023-04-06T10:09:44;16.73;38.49
72202;SHT30;60105;54.956;73.412;2023-04-06T10:12:47;16.64;36.32
72202;SHT30;60105;54.956;73.412;2023-04-06T10:15:50;16.77;40.34
72202;SHT30;60105;54.956;73.412;2023-04-06T10:18:58;16.71;37.63
72202;SHT30;60105;54.956;73.412;2023-04-06T10:22:12;16.60;36.82
72202;SHT30;60105;54.956;73.412;2023-04-06T10:25:16;16.55;37.91
72202;SHT30;60105;54.956;73.412;2023-04-06T10:28:19;16.59;38.17
72202;SHT30;60105;54.956;73.412;2023-04-06T10:31:40;16.63;38.87
72202;SHT30;60105;54.956;73.412;2023-04-06T10:34:43;16.60;37.94
72202;SHT30;60105;54.956;73.412;2023-04-06T10:38:00;16.60;37.44
72202;SHT30;60105;54.956;73.412;2023-04-06T10:41:10;16.57;39.10
72202;SHT30;60105;54.956;73.412;2023-04-06T10:44:22;16.57;40.41
72202;SHT30;60105;54.956;73.412;2023-04-06T10:47:23;16.53;41.10
72202;SHT30;60105;54.956;73.412;2023-04-06T10:50:24;16.50;41.33
72202;SHT30;60105;54.956;73.412;2023-04-06T10:53:33;16.52;41.37
72202;SHT30;60105;54.956;73.412;2023-04-06T10:56:39;16.48;39.65
72202;SHT30;60105;54.956;73.412;2023-04-06T10:59:44;16.50;40.19
72202;SHT30;60105;54.956;73.412;2023-04-06T11:02:46;16.59;40.36
72202;SHT30;60105;54.956;73.412;2023-04-06T11:05:49;16.61;41.28
72202;SHT30;60105;54.956;73.412;2023-04-06T11:08:51;16.60;41.67
72202;SHT30;60105;54.956;73.412;2023-04-06T11:11:53;16.60;42.71
72202;SHT30;60105;54.956;73.412;2023-04-06T11:15:02;16.73;42.84
72202;SHT30;60105;54.956;73.412;2023-04-06T11:18:07;16.71;42.54
72202;SHT30;60105;54.956;73.412;2023-04-06T11:24:48;16.71;43.61
72202;SHT30;60105;54.956;73.412;2023-04-06T11:27:52;16.67;44.29
72202;SHT30;60105;54.956;73.412;2023-04-06T11:30:53;16.76;44.53
72202;SHT30;60105;54.956;73.412;2023-04-06T11:33:56;16.79;45.16
72202;SHT30;60105;54.956;73.412;2023-04-06T11:36:59;16.87;44.38
72202;SHT30;60105;54.956;73.412;2023-04-06T11:40:01;16.90;43.62
72202;SHT30;60105;54.956;73.412;2023-04-06T11:43:04;16.84;43.31
72202;SHT30;60105;54.956;73.412;2023-04-06T11:46:40;16.80;43.18
72202;SHT30;60105;54.956;73.412;2023-04-06T11:49:51;16.73;43.69
72202;SHT30;60105;54.956;73.412;2023-04-06T11:52:59;16.76;43.85
72202;SHT30;60105;54.956;73.412;2023-04-06T11:56:40;16.77;44.59
72202;SHT30;60105;54.956;73.412;2023-04-06T11:59:45;16.81;44.16
72202;SHT30;60105;54.956;73.412;2023-04-06T12:02:52;16.77;43.86
72202;SHT30;60105;54.956;73.412;2023-04-06T12:05:53;16.76;43.82
72202;SHT30;60105;54.956;73.412;2023-04-06T12:08:54;16.76;44.32
72202;SHT30;60105;54.956;73.412;2023-04-06T12:11:56;16.73;44.47
72202;SHT30;60105;54.956;73.412;2023-04-06T12:15:08;16.66;45.12
72202;SHT30;60105;54.956;73.412;2023-04-06T12:18:10;16.57;45.38
72202;SHT30;60105;54.956;73.412;2023-04-06T12:21:39;16.46;45.83
72202;SHT30;60105;54.956;73.412;2023-04-06T12:24:41;16.38;45.66
72202;SHT30;60105;54.956;73.412;2023-04-06T12:27:42;16.30;46.24
72202;SHT30;60105;54.956;73.412;2023-04-06T12:30:50;16.22;47.29
72202;SHT30;60105;54.956;73.412;2023-04-06T12:33:51;16.11;47.34
72202;SHT30;60105;54.956;73.412;2023-04-06T12:36:57;15.98;47.91
72202;SHT30;60105;54.956;73.412;2023-04-06T12:39:59;15.91;48.14
72202;SHT30;60105;54.956;73.412;2023-04-06T12:43:03;15.84;48.31
72202;SHT30;60105;54.956;73.412;2023-04-06T12:46:39;15.74;49.11
72202;SHT30;60105;54.956;73.412;2023-04-06T12:49:41;15.70;49.17
72202;SHT30;60105;54.956;73.412;2023-04-06T12:52:48;15.60;49.43
72202;SHT30;60105;54.956;73.412;2023-04-06T12:55:50;15.53;49.84
72202;SHT30;60105;54.956;73.412;2023-04-06T12:58:51;15.44;50.03
72202;SHT30;60105;54.956;73.412;2023-04-06T13:01:58;15.37;51.78
72202;SHT30;60105;54.956;73.412;2023-04-06T13:05:09;15.23;52.73
72202;SHT30;60105;54.956;73.412;2023-04-06T13:08:11;15.10;53.54
72202;SHT30;60105;54.956;73.412;2023-04-06T13:11:22;15.00;54.04
72202;SHT30;60105;54.956;73.412;2023-04-06T13:14:37;14.88;54.55
72202;SHT30;60105;54.956;73.412;2023-04-06T13:17:40;14.82;54.92
72202;SHT30;60105;54.956;73.412;2023-04-06T13:20:41;14.71;55.13
72202;SHT30;60105;54.956;73.412;2023-04-06T13:23:48;14.62;55.38
72202;SHT30;60105;54.956;73.412;2023-04-06T13:26:49;14.55;55.85
72202;SHT30;60105;54.956;73.412;2023-04-06T13:29:51;14.44;56.15
72202;SHT30;60105;54.956;73.412;2023-04-06T13:32:53;14.34;56.58
72202;SHT30;60105;54.956;73.412;2023-04-06T13:35:54;14.20;56.79
72202;SHT30;60105;54.956;73.412;2023-04-06T13:39:06;14.14;56.96
72202;SHT30;60105;54.956;73.412;2023-04-06T13:42:07;14.06;57.01
72202;SHT30;60105;54.956;73.412;2023-04-06T13:45:09;13.97;57.29
72202;SHT30;60105;54.956;73.412;2023-04-06T13:48:10;13.90;57.59
72202;SHT30;60105;54.956;73.412;2023-04-06T13:51:39;13.83;57.83
72202;SHT30;60105;54.956;73.412;2023-04-06T13:54:41;13.77;57.85
72202;SHT30;60105;54.956;73.412;2023-04-06T13:57:42;13.70;58.14
72202;SHT30;60105;54.956;73.412;2023-04-06T14:00:43;13.67;58.26
72202;SHT30;60105;54.956;73.412;2023-04-06T14:03:44;13.62;58.39
72202;SHT30;60105;54.956;73.412;2023-04-06T14:06:52;13.59;58.64
72202;SHT30;60105;54.956;73.412;2023-04-06T14:10:04;13.52;58.79
72202;SHT30;60105;54.956;73.412;2023-04-06T14:13:05;13.45;58.99
72202;SHT30;60105;54.956;73.412;2023-04-06T14:16:40;13.36;59.22
72202;SHT30;60105;54.956;73.412;2023-04-06T14:19:42;13.27;59.83
72202;SHT30;60105;54.956;73.412;2023-04-06T14:22:54;13.29;59.71
72202;SHT30;60105;54.956;73.412;2023-04-06T14:26:40;13.21;59.66
72202;SHT30;60105;54.956;73.412;2023-04-06T14:29:45;13.19;59.95
72202;SHT30;60105;54.956;73.412;2023-04-06T14:32:46;13.12;60.04
72202;SHT30;60105;54.956;73.412;2023-04-06T14:35:48;13.10;60.27
72202;SHT30;60105;54.956;73.412;2023-04-06T14:38:49;13.04;60.40
72202;SHT30;60105;54.956;73.412;2023-04-06T14:41:51;13.04;60.51
72202;SHT30;60105;54.956;73.412;2023-04-06T14:44:52;12.93;60.90
72202;SHT30;60105;54.956;73.412;2023-04-06T14:47:54;12.81;60.91
72202;SHT30;60105;54.956;73.412;2023-04-06T14:51:39;12.76;61.48
72202;SHT30;60105;54.956;73.412;2023-04-06T14:54:47;12.72;61.39
72202;SHT30;60105;54.956;73.412;2023-04-06T14:57:48;12.66;62.12
72202;SHT30;60105;54.956;73.412;2023-04-06T15:01:39;12.64;62.55
72202;SHT30;60105;54.956;73.412;2023-04-06T15:04:41;12.69;62.58
72202;SHT30;60105;54.956;73.412;2023-04-06T15:07:43;12.63;62.54
72202;SHT30;60105;54.956;73.412;2023-04-06T15:10:50;12.50;62.77
72202;SHT30;60105;54.956;73.412;2023-04-06T15:13:52;12.45;62.86
72202;SHT30;60105;54.956;73.412;2023-04-06T15:16:53;12.38;63.36
72202;SHT30;60105;54.956;73.412;2023-04-06T15:19:55;12.33;63.64
72202;SHT30;60105;54.956;73.412;2023-04-06T15:22:56;12.33;63.76
72202;SHT30;60105;54.956;73.412;2023-04-06T15:26:39;12.24;64.10
72202;SHT30;60105;54.956;73.412;2023-04-06T15:29:41;12.17;64.42
72202;SHT30;60105;54.956;73.412;2023-04-06T15:32:54;12.11;64.41
72202;SHT30;60105;54.956;73.412;2023-04-06T15:36:39;12.06;64.76
72202;SHT30;60105;54.956;73.412;2023-04-06T15:39:42;11.99;64.73
72202;SHT30;60105;54.956;73.412;2023-04-06T15:42:44;11.94;64.98
72202;SHT30;60105;54.956;73.412;2023-04-06T15:45:45;11.88;64.79
72202;SHT30;60105;54.956;73.412;2023-04-06T15:48:47;11.81;65.03
72202;SHT30;60105;54.956;73.412;2023-04-06T15:51:49;11.77;64.71
72202;SHT30;60105;54.956;73.412;2023-04-06T15:54:51;11.75;64.99
72202;SHT30;60105;54.956;73.412;2023-04-06T15:57:58;11.71;65.58
72202;SHT30;60105;54.956;73.412;2023-04-06T16:01:39;11.66;64.03
72202;SHT30;60105;54.956;73.412;2023-04-06T16:04:42;11.70;64.01
72202;SHT30;60105;54.956;73.412;2023-04-06T16:07:43;11.75;62.57
72202;SHT30;60105;54.956;73.412;2023-04-06T16:10:45;11.82;62.06
72202;SHT30;60105;54.956;73.412;2023-04-06T16:13:46;11.84;62.12
72202;SHT30;60105;54.956;73.412;2023-04-06T16:16:52;11.84;62.06
72202;SHT30;60105;54.956;73.412;2023-04-06T16:19:54;11.78;62.01
72202;SHT30;60105;54.956;73.412;2023-04-06T16:22:56;11.78;61.08
72202;SHT30;60105;54.956;73.412;2023-04-06T16:26:39;11.78;60.67
72202;SHT30;60105;54.956;73.412;2023-04-06T16:29:41;11.84;59.70
72202;SHT30;60105;54.956;73.412;2023-04-06T16:32:43;11.82;59.79
72202;SHT30;60105;54.956;73.412;2023-04-06T16:35:47;11.81;59.28
72202;SHT30;60105;54.956;73.412;2023-04-06T16:39:00;11.78;59.31
72202;SHT30;60105;54.956;73.412;2023-04-06T16:42:01;11.78;59.24
72202;SHT30;60105;54.956;73.412;2023-04-06T16:45:03;11.74;59.26
72202;SHT30;60105;54.956;73.412;2023-04-06T16:48:04;11.71;59.29
72202;SHT30;60105;54.956;73.412;2023-04-06T16:51:40;11.66;59.32
72202;SHT30;60105;54.956;73.412;2023-04-06T16:54:42;11.63;59.68
72202;SHT30;60105;54.956;73.412;2023-04-06T16:57:43;11.60;59.75
72202;SHT30;60105;54.956;73.412;2023-04-06T17:00:45;11.57;59.84
72202;SHT30;60105;54.956;73.412;2023-04-06T17:03:46;11.53;60.17
72202;SHT30;60105;54.956;73.412;2023-04-06T17:06:48;11.49;60.36
72202;SHT30;60105;54.956;73.412;2023-04-06T17:09:54;11.43;60.71
72202;SHT30;60105;54.956;73.412;2023-04-06T17:12:56;11.40;60.69
72202;SHT30;60105;54.956;73.412;2023-04-06T17:16:39;11.26;61.20
72202;SHT30;60105;54.956;73.412;2023-04-06T17:19:41;11.24;61.22
72202;SHT30;60105;54.956;73.412;2023-04-06T17:22:52;11.19;61.41
72202;SHT30;60105;54.956;73.412;2023-04-06T17:25:54;11.10;61.59
72202;SHT30;60105;54.956;73.412;2023-04-06T17:29:01;11.03;62.02
72202;SHT30;60105;54.956;73.412;2023-04-06T17:32:02;11.02;62.08
72202;SHT30;60105;54.956;73.412;2023-04-06T17:35:03;11.06;60.97
72202;SHT30;60105;54.956;73.412;2023-04-06T17:38:11;11.15;59.04
72202;SHT30;60105;54.956;73.412;2023-04-06T17:41:17;11.30;58.23
72202;SHT30;60105;54.956;73.412;2023-04-06T17:44:21;11.33;58.32
72202;SHT30;60105;54.956;73.412;2023-04-06T17:47:22;11.34;58.59
72202;SHT30;60105;54.956;73.412;2023-04-06T17:50:25;11.33;58.84
72202;SHT30;60105;54.956;73.412;2023-04-06T17:53:37;11.27;59.08
72202;SHT30;60105;54.956;73.412;2023-04-06T17:56:39;11.20;59.11
72202;SHT30;60105;54.956;73.412;2023-04-06T17:59:41;11.08;59.24
72202;SHT30;60105;54.956;73.412;2023-04-06T18:02:53;10.93;58.25
72202;SHT30;60105;54.956;73.412;2023-04-06T18:05:54;10.72;58.45
72202;SHT30;60105;54.956;73.412;2023-04-06T18:08:58;10.55;57.97
72202;SHT30;60105;54.956;73.412;2023-04-06T18:11:59;10.41;58.42
72202;SHT30;60105;54.956;73.412;2023-04-06T18:15:01;10.29;57.72
72202;SHT30;60105;54.956;73.412;2023-04-06T18:18:04;10.10;58.21
72202;SHT30;60105;54.956;73.412;2023-04-06T18:21:39;10.00;58.16
72202;SHT30;60105;54.956;73.412;2023-04-06T18:24:41;9.92;58.24
72202;SHT30;60105;54.956;73.412;2023-04-06T18:27:47;9.85;58.07
72202;SHT30;60105;54.956;73.412;2023-04-06T18:31:39;9.71;58.46
72202;SHT30;60105;54.956;73.412;2023-04-06T18:34:41;9.66;58.48
72202;SHT30;60105;54.956;73.412;2023-04-06T18:37:42;9.52;58.18
72202;SHT30;60105;54.956;73.412;2023-04-06T18:40:43;9.44;58.27
72202;SHT30;60105;54.956;73.412;2023-04-06T18:43:45;9.36;58.36
72202;SHT30;60105;54.956;73.412;2023-04-06T18:46:46;9.24;58.83
72202;SHT30;60105;54.956;73.412;2023-04-06T18:49:47;9.20;58.91
72202;SHT30;60105;54.956;73.412;2023-04-06T18:53:00;9.10;58.96
72202;SHT30;60105;54.956;73.412;2023-04-06T18:56:39;8.86;59.60
72202;SHT30;60105;54.956;73.412;2023-04-06T18:59:41;8.79;59.85
72202;SHT30;60105;54.956;73.412;2023-04-06T19:02:43;8.66;60.16
72202;SHT30;60105;54.956;73.412;2023-04-06T19:05:45;8.50;60.72
72202;SHT30;60105;54.956;73.412;2023-04-06T19:08:47;8.36;60.83
72202;SHT30;60105;54.956;73.412;2023-04-06T19:11:54;8.18;60.29
72202;SHT30;60105;54.956;73.412;2023-04-06T19:15:06;7.86;60.58
72202;SHT30;60105;54.956;73.412;2023-04-06T19:18:13;7.69;60.79
72202;SHT30;60105;54.956;73.412;2023-04-06T19:21:39;7.45;61.84
72202;SHT30;60105;54.956;73.412;2023-04-06T19:24:41;7.33;62.28
72202;SHT30;60105;54.956;73.412;2023-04-06T19:27:43;7.12;62.66
72202;SHT30;60105;54.956;73.412;2023-04-06T19:30:49;6.88;63.45
72202;SHT30;60105;54.956;73.412;2023-04-06T19:34:01;6.83;63.97
72202;SHT30;60105;54.956;73.412;2023-04-06T19:37:12;6.60;63.84
72202;SHT30;60105;54.956;73.412;2023-04-06T19:40:18;6.34;64.27
72202;SHT30;60105;54.956;73.412;2023-04-06T19:43:20;6.13;64.67
72202;SHT30;60105;54.956;73.412;2023-04-06T19:46:39;5.84;65.52